Etusivu
METAR-TAF:

METAR-TAF

Lentoasemat :

Vojens, Tanska

Leveyspiiri: 55-14N, Pituuspiiri: 009-16E, korkeus merenpinnasta: 43 m

Tämänhetkinen sää

Tämä raportti tehtiin 13 minuuttia sitten, kello 22.50 UTC
Tuuli 7 kn idästä
Lämpötila 14°C
Kosteus 63%
Ilmanpaine 1025 hPa
Näkyvyys 10 km tai enemmän
ei pilviä alle 1500 m:ssä eikä cumulonimbus-pilviä

METAR: EKSP 242250Z 08007KT CAVOK 14/07 Q1025 RMK SKC

Aika: 01:03 (23:03 UTC)

Sääennuste

Tämä raportti tehtiin 2 tuntia ja 40 minuuttia sitten, kello 20.23 UTC
Ennuste voimassa 24. päivästä klo 21 UTC - 25. päivään klo 18 UTC
Tuuli 10 kn idästä
Näkyvyys 10 km tai enemmän
Muutamia pilviä 20000 ft:n korkeudessa
Ajoittain
25. päivästä klo 10 UTC - 25. päivään klo 16 UTC
Tuuli 10 kn idästä puuskistuen 20 kn:hen

TAF: EKSP 242023Z 2421/2518 09010KT 9999 FEW200 TEMPO 2510/2516 08010G20KT

Säähavainnot ja -ennusteet yli 4000 lentoasemalta (METAR- ja TAF-raportit).

Käytössä olevat sääasemat on merkitty karttaan keltaisilla ja punaisilla pisteillä.

Aseta hiiri pisteen päälle nähdäksesi sääaseman nimen.

Klikkaa sitten nähdäksesi säähavainnot ja -ennusteet.

Kartan vaihtaminen: klikkaa mustalla rastilla varustettuja vihreitä pisteitä, niin voit zoomata sisään; viivalla varustettua vihreää pistettä, niin voit zoomata ulos tai vihreitä nuolia, niin pääset viereisille kartoille.


METAR-TAF: